sensor_id;sensor_type;location;lat;lon;timestamp;pressure;altitude;pressure_sealevel;temperature;humidity
57594;BME280;43423;46.510;6.686;2023-09-19T00:00:38;96558.41;;;16.55;100.00
57594;BME280;43423;46.510;6.686;2023-09-19T00:03:25;96554.13;;;16.54;100.00
57594;BME280;43423;46.510;6.686;2023-09-19T00:05:51;96555.44;;;16.47;100.00
57594;BME280;43423;46.510;6.686;2023-09-19T00:08:16;96550.19;;;16.43;100.00
57594;BME280;43423;46.510;6.686;2023-09-19T00:10:43;96546.34;;;16.52;100.00
57594;BME280;43423;46.510;6.686;2023-09-19T00:13:09;96538.22;;;16.54;100.00
57594;BME280;43423;46.510;6.686;2023-09-19T00:15:46;96545.34;;;16.85;100.00
57594;BME280;43423;46.510;6.686;2023-09-19T00:18:16;96549.75;;;16.99;100.00
57594;BME280;43423;46.510;6.686;2023-09-19T00:20:44;96539.53;;;16.47;100.00
57594;BME280;43423;46.510;6.686;2023-09-19T00:23:16;96539.59;;;15.95;100.00
57594;BME280;43423;46.510;6.686;2023-09-19T00:25:42;96539.19;;;15.80;100.00
57594;BME280;43423;46.510;6.686;2023-09-19T00:28:08;96536.47;;;15.74;100.00
57594;BME280;43423;46.510;6.686;2023-09-19T00:30:34;96525.84;;;15.78;100.00
57594;BME280;43423;46.510;6.686;2023-09-19T00:33:00;96542.22;;;16.23;100.00
57594;BME280;43423;46.510;6.686;2023-09-19T00:35:31;96532.00;;;16.42;100.00
57594;BME280;43423;46.510;6.686;2023-09-19T00:37:56;96540.09;;;16.40;100.00
57594;BME280;43423;46.510;6.686;2023-09-19T00:40:22;96535.22;;;16.52;100.00
57594;BME280;43423;46.510;6.686;2023-09-19T00:42:48;96525.31;;;16.62;100.00
57594;BME280;43423;46.510;6.686;2023-09-19T00:45:16;96517.66;;;16.74;100.00
57594;BME280;43423;46.510;6.686;2023-09-19T00:47:47;96527.31;;;16.62;100.00
57594;BME280;43423;46.510;6.686;2023-09-19T00:50:18;96522.03;;;16.58;100.00
57594;BME280;43423;46.510;6.686;2023-09-19T00:52:46;96519.44;;;16.71;100.00
57594;BME280;43423;46.510;6.686;2023-09-19T00:55:12;96531.72;;;16.46;100.00
57594;BME280;43423;46.510;6.686;2023-09-19T00:57:39;96515.94;;;16.35;100.00
57594;BME280;43423;46.510;6.686;2023-09-19T01:00:06;96522.03;;;16.28;100.00
57594;BME280;43423;46.510;6.686;2023-09-19T01:02:34;96526.31;;;16.29;100.00
57594;BME280;43423;46.510;6.686;2023-09-19T01:05:01;96527.78;;;16.36;100.00
57594;BME280;43423;46.510;6.686;2023-09-19T01:07:27;96524.09;;;16.22;100.00
57594;BME280;43423;46.510;6.686;2023-09-19T01:09:57;96524.53;;;16.26;100.00
57594;BME280;43423;46.510;6.686;2023-09-19T01:12:33;96523.25;;;16.33;100.00
57594;BME280;43423;46.510;6.686;2023-09-19T01:24:00;96514.66;;;16.36;100.00
57594;BME280;43423;46.510;6.686;2023-09-19T01:29:33;96532.53;;;16.77;100.00
57594;BME280;43423;46.510;6.686;2023-09-19T01:32:05;96524.31;;;16.24;100.00
57594;BME280;43423;46.510;6.686;2023-09-19T01:35:03;96530.16;;;16.51;100.00
57594;BME280;43423;46.510;6.686;2023-09-19T01:37:30;96527.09;;;16.60;100.00
57594;BME280;43423;46.510;6.686;2023-09-19T01:39:57;96519.34;;;16.11;100.00
57594;BME280;43423;46.510;6.686;2023-09-19T01:48:58;96512.97;;;16.28;100.00
57594;BME280;43423;46.510;6.686;2023-09-19T01:52:11;96519.00;;;16.26;100.00
57594;BME280;43423;46.510;6.686;2023-09-19T01:54:36;96515.66;;;16.33;100.00
57594;BME280;43423;46.510;6.686;2023-09-19T01:57:27;96514.78;;;16.19;100.00
57594;BME280;43423;46.510;6.686;2023-09-19T02:00:09;96514.38;;;16.40;100.00
57594;BME280;43423;46.510;6.686;2023-09-19T02:02:38;96501.16;;;16.16;100.00
57594;BME280;43423;46.510;6.686;2023-09-19T02:05:05;96491.03;;;16.24;100.00
57594;BME280;43423;46.510;6.686;2023-09-19T02:07:32;96511.88;;;16.36;100.00
57594;BME280;43423;46.510;6.686;2023-09-19T02:09:58;96504.63;;;16.28;100.00
57594;BME280;43423;46.510;6.686;2023-09-19T02:12:30;96491.91;;;16.43;100.00
57594;BME280;43423;46.510;6.686;2023-09-19T02:14:57;96486.47;;;16.57;100.00
57594;BME280;43423;46.510;6.686;2023-09-19T02:17:23;96496.69;;;16.73;100.00
57594;BME280;43423;46.510;6.686;2023-09-19T02:19:54;96498.84;;;16.56;100.00
57594;BME280;43423;46.510;6.686;2023-09-19T02:22:21;96501.16;;;16.52;100.00
57594;BME280;43423;46.510;6.686;2023-09-19T02:24:48;96510.06;;;16.44;100.00
57594;BME280;43423;46.510;6.686;2023-09-19T02:27:14;96508.66;;;16.27;100.00
57594;BME280;43423;46.510;6.686;2023-09-19T02:29:42;96508.34;;;16.36;100.00
57594;BME280;43423;46.510;6.686;2023-09-19T02:32:07;96512.56;;;16.42;100.00
57594;BME280;43423;46.510;6.686;2023-09-19T02:34:35;96511.31;;;16.43;100.00
57594;BME280;43423;46.510;6.686;2023-09-19T02:37:07;96517.81;;;16.52;100.00
57594;BME280;43423;46.510;6.686;2023-09-19T02:39:34;96514.66;;;16.36;100.00
57594;BME280;43423;46.510;6.686;2023-09-19T02:42:00;96511.06;;;16.41;100.00
57594;BME280;43423;46.510;6.686;2023-09-19T02:44:26;96502.69;;;16.53;100.00
57594;BME280;43423;46.510;6.686;2023-09-19T02:46:52;96493.63;;;16.46;100.00
57594;BME280;43423;46.510;6.686;2023-09-19T02:49:18;96509.66;;;16.29;100.00
57594;BME280;43423;46.510;6.686;2023-09-19T02:51:44;96496.56;;;16.24;100.00
57594;BME280;43423;46.510;6.686;2023-09-19T02:54:10;96508.00;;;16.15;100.00
57594;BME280;43423;46.510;6.686;2023-09-19T02:56:36;96510.69;;;16.26;100.00
57594;BME280;43423;46.510;6.686;2023-09-19T02:59:02;96495.38;;;16.14;100.00
57594;BME280;43423;46.510;6.686;2023-09-19T03:01:28;96512.44;;;16.29;100.00
57594;BME280;43423;46.510;6.686;2023-09-19T03:03:54;96512.28;;;16.52;100.00
57594;BME280;43423;46.510;6.686;2023-09-19T03:06:20;96509.44;;;16.57;100.00
57594;BME280;43423;46.510;6.686;2023-09-19T03:08:47;96511.41;;;16.32;100.00
57594;BME280;43423;46.510;6.686;2023-09-19T03:11:15;96504.66;;;16.22;100.00
57594;BME280;43423;46.510;6.686;2023-09-19T03:13:41;96506.00;;;16.10;100.00
57594;BME280;43423;46.510;6.686;2023-09-19T03:16:08;96515.25;;;16.24;100.00
57594;BME280;43423;46.510;6.686;2023-09-19T03:18:34;96523.75;;;16.31;100.00
57594;BME280;43423;46.510;6.686;2023-09-19T03:21:00;96516.28;;;16.21;100.00
57594;BME280;43423;46.510;6.686;2023-09-19T03:23:26;96515.53;;;16.20;100.00
57594;BME280;43423;46.510;6.686;2023-09-19T03:25:55;96516.50;;;16.23;100.00
57594;BME280;43423;46.510;6.686;2023-09-19T03:28:22;96517.59;;;16.08;100.00
57594;BME280;43423;46.510;6.686;2023-09-19T03:31:05;96513.63;;;16.04;100.00
57594;BME280;43423;46.510;6.686;2023-09-19T03:33:31;96526.78;;;16.33;100.00
57594;BME280;43423;46.510;6.686;2023-09-19T03:35:58;96519.31;;;16.17;100.00
57594;BME280;43423;46.510;6.686;2023-09-19T03:38:25;96526.53;;;16.31;100.00
57594;BME280;43423;46.510;6.686;2023-09-19T03:40:51;96518.63;;;16.46;100.00
57594;BME280;43423;46.510;6.686;2023-09-19T03:43:17;96519.88;;;16.45;100.00
57594;BME280;43423;46.510;6.686;2023-09-19T03:45:43;96532.50;;;16.46;100.00
57594;BME280;43423;46.510;6.686;2023-09-19T03:48:09;96517.19;;;16.34;100.00
57594;BME280;43423;46.510;6.686;2023-09-19T03:50:35;96518.66;;;16.41;100.00
57594;BME280;43423;46.510;6.686;2023-09-19T03:53:01;96516.94;;;16.32;100.00
57594;BME280;43423;46.510;6.686;2023-09-19T03:55:27;96504.97;;;16.13;100.00
57594;BME280;43423;46.510;6.686;2023-09-19T03:57:53;96504.19;;;16.18;100.00
57594;BME280;43423;46.510;6.686;2023-09-19T04:00:18;96509.41;;;16.27;100.00
57594;BME280;43423;46.510;6.686;2023-09-19T04:02:51;96502.66;;;16.23;100.00
57594;BME280;43423;46.510;6.686;2023-09-19T04:05:17;96505.69;;;16.19;100.00
57594;BME280;43423;46.510;6.686;2023-09-19T04:07:43;96505.66;;;16.25;100.00
57594;BME280;43423;46.510;6.686;2023-09-19T04:10:09;96509.00;;;16.47;100.00
57594;BME280;43423;46.510;6.686;2023-09-19T04:12:37;96509.88;;;16.31;100.00
57594;BME280;43423;46.510;6.686;2023-09-19T04:15:05;96508.41;;;16.25;100.00
57594;BME280;43423;46.510;6.686;2023-09-19T04:17:30;96499.84;;;16.28;100.00
57594;BME280;43423;46.510;6.686;2023-09-19T04:19:58;96501.13;;;16.22;100.00
57594;BME280;43423;46.510;6.686;2023-09-19T04:22:24;96499.16;;;16.16;100.00
57594;BME280;43423;46.510;6.686;2023-09-19T04:24:50;96504.03;;;16.05;100.00
57594;BME280;43423;46.510;6.686;2023-09-19T04:27:16;96502.25;;;16.02;100.00
57594;BME280;43423;46.510;6.686;2023-09-19T04:29:41;96509.06;;;16.06;100.00
57594;BME280;43423;46.510;6.686;2023-09-19T04:32:07;96503.94;;;16.16;100.00
57594;BME280;43423;46.510;6.686;2023-09-19T04:34:36;96503.94;;;16.16;100.00
57594;BME280;43423;46.510;6.686;2023-09-19T04:37:03;96503.75;;;16.08;100.00
57594;BME280;43423;46.510;6.686;2023-09-19T04:39:29;96501.28;;;15.99;100.00
57594;BME280;43423;46.510;6.686;2023-09-19T04:41:55;96513.00;;;16.22;100.00
57594;BME280;43423;46.510;6.686;2023-09-19T04:44:20;96506.03;;;16.40;100.00
57594;BME280;43423;46.510;6.686;2023-09-19T04:46:47;96511.38;;;16.38;100.00
57594;BME280;43423;46.510;6.686;2023-09-19T04:49:12;96514.94;;;16.27;100.00
57594;BME280;43423;46.510;6.686;2023-09-19T04:51:39;96510.41;;;16.30;100.00
57594;BME280;43423;46.510;6.686;2023-09-19T04:54:05;96514.00;;;16.19;100.00
57594;BME280;43423;46.510;6.686;2023-09-19T04:56:30;96513.63;;;16.04;100.00
57594;BME280;43423;46.510;6.686;2023-09-19T04:59:00;96523.44;;;16.05;100.00
57594;BME280;43423;46.510;6.686;2023-09-19T05:01:26;96527.63;;;16.17;100.00
57594;BME280;43423;46.510;6.686;2023-09-19T05:03:52;96521.84;;;16.15;100.00
57594;BME280;43423;46.510;6.686;2023-09-19T05:06:20;96523.09;;;16.19;100.00
57594;BME280;43423;46.510;6.686;2023-09-19T05:08:47;96526.16;;;16.10;100.00
57594;BME280;43423;46.510;6.686;2023-09-19T05:11:20;96536.03;;;16.06;100.00
57594;BME280;43423;46.510;6.686;2023-09-19T05:13:47;96532.53;;;16.00;100.00
57594;BME280;43423;46.510;6.686;2023-09-19T05:16:13;96526.72;;;16.03;100.00
57594;BME280;43423;46.510;6.686;2023-09-19T05:18:38;96528.69;;;16.14;100.00
57594;BME280;43423;46.510;6.686;2023-09-19T05:21:05;96536.03;;;16.06;100.00
57594;BME280;43423;46.510;6.686;2023-09-19T05:23:30;96538.31;;;16.02;100.00
57594;BME280;43423;46.510;6.686;2023-09-19T05:25:56;96535.84;;;15.98;100.00
57594;BME280;43423;46.510;6.686;2023-09-19T05:28:25;96548.66;;;16.01;100.00
57594;BME280;43423;46.510;6.686;2023-09-19T05:30:55;96542.34;;;16.06;100.00
57594;BME280;43423;46.510;6.686;2023-09-19T05:33:21;96545.56;;;16.10;100.00
57594;BME280;43423;46.510;6.686;2023-09-19T05:35:49;96551.50;;;16.31;100.00
57594;BME280;43423;46.510;6.686;2023-09-19T05:38:15;96549.84;;;16.53;100.00
57594;BME280;43423;46.510;6.686;2023-09-19T05:40:45;96559.13;;;16.61;100.00
57594;BME280;43423;46.510;6.686;2023-09-19T05:43:11;96554.19;;;16.42;100.00
57594;BME280;43423;46.510;6.686;2023-09-19T05:45:36;96555.59;;;16.25;100.00
57594;BME280;43423;46.510;6.686;2023-09-19T05:48:10;96569.34;;;16.41;100.00
57594;BME280;43423;46.510;6.686;2023-09-19T05:50:37;96562.44;;;16.59;100.00
57594;BME280;43423;46.510;6.686;2023-09-19T05:53:03;96572.63;;;16.45;100.00
57594;BME280;43423;46.510;6.686;2023-09-19T05:55:32;96569.41;;;16.66;100.00
57594;BME280;43423;46.510;6.686;2023-09-19T05:57:58;96576.69;;;16.74;100.00
57594;BME280;43423;46.510;6.686;2023-09-19T06:00:25;96580.50;;;16.36;100.00
57594;BME280;43423;46.510;6.686;2023-09-19T06:02:57;96583.97;;;15.95;100.00
57594;BME280;43423;46.510;6.686;2023-09-19T06:05:26;96588.31;;;15.90;100.00
57594;BME280;43423;46.510;6.686;2023-09-19T06:07:53;96599.09;;;16.00;100.00
57594;BME280;43423;46.510;6.686;2023-09-19T06:10:19;96596.69;;;15.74;100.00
57594;BME280;43423;46.510;6.686;2023-09-19T06:12:48;96592.91;;;15.71;100.00
57594;BME280;43423;46.510;6.686;2023-09-19T06:15:15;96602.38;;;16.04;100.00
57594;BME280;43423;46.510;6.686;2023-09-19T06:17:54;96602.69;;;15.83;100.00
57594;BME280;43423;46.510;6.686;2023-09-19T06:20:20;96612.28;;;15.82;100.00
57594;BME280;43423;46.510;6.686;2023-09-19T06:22:48;96611.69;;;16.06;100.00
57594;BME280;43423;46.510;6.686;2023-09-19T06:25:14;96606.66;;;16.05;100.00
57594;BME280;43423;46.510;6.686;2023-09-19T06:27:48;96619.00;;;16.04;100.00
57594;BME280;43423;46.510;6.686;2023-09-19T06:30:14;96619.19;;;16.17;100.00
57594;BME280;43423;46.510;6.686;2023-09-19T06:32:41;96628.56;;;16.08;100.00
57594;BME280;43423;46.510;6.686;2023-09-19T06:35:11;96621.41;;;16.30;100.00
57594;BME280;43423;46.510;6.686;2023-09-19T06:37:39;96621.38;;;16.35;100.00
57594;BME280;43423;46.510;6.686;2023-09-19T06:40:10;96618.88;;;16.26;100.00
57594;BME280;43423;46.510;6.686;2023-09-19T06:42:51;96622.50;;;16.10;100.00
57594;BME280;43423;46.510;6.686;2023-09-19T06:45:21;96622.94;;;16.25;100.00
57594;BME280;43423;46.510;6.686;2023-09-19T06:47:48;96618.75;;;16.02;100.00
57594;BME280;43423;46.510;6.686;2023-09-19T06:50:16;96625.94;;;16.27;100.00
57594;BME280;43423;46.510;6.686;2023-09-19T06:52:44;96621.41;;;16.24;100.00
57594;BME280;43423;46.510;6.686;2023-09-19T06:55:09;96621.31;;;16.46;100.00
57594;BME280;43423;46.510;6.686;2023-09-19T06:57:37;96624.44;;;16.26;100.00
57594;BME280;43423;46.510;6.686;2023-09-19T07:00:03;96623.44;;;16.65;100.00
57594;BME280;43423;46.510;6.686;2023-09-19T07:02:35;96629.75;;;16.71;100.00
57594;BME280;43423;46.510;6.686;2023-09-19T07:05:00;96626.88;;;16.82;100.00
57594;BME280;43423;46.510;6.686;2023-09-19T07:07:26;96627.81;;;16.90;100.00
57594;BME280;43423;46.510;6.686;2023-09-19T07:09:51;96630.47;;;16.77;100.00
57594;BME280;43423;46.510;6.686;2023-09-19T07:12:19;96630.38;;;16.88;100.00
57594;BME280;43423;46.510;6.686;2023-09-19T07:14:45;96633.44;;;16.85;100.00
57594;BME280;43423;46.510;6.686;2023-09-19T07:17:10;96642.56;;;16.80;100.00
57594;BME280;43423;46.510;6.686;2023-09-19T07:19:37;96640.66;;;16.99;100.00
57594;BME280;43423;46.510;6.686;2023-09-19T07:22:02;96638.16;;;16.95;100.00
57594;BME280;43423;46.510;6.686;2023-09-19T07:24:28;96639.25;;;17.17;100.00
57594;BME280;43423;46.510;6.686;2023-09-19T07:26:54;96641.50;;;17.18;100.00
57594;BME280;43423;46.510;6.686;2023-09-19T07:29:19;96635.91;;;17.24;100.00
57594;BME280;43423;46.510;6.686;2023-09-19T07:31:45;96647.59;;;17.17;100.00
57594;BME280;43423;46.510;6.686;2023-09-19T07:34:11;96649.16;;;17.37;100.00
57594;BME280;43423;46.510;6.686;2023-09-19T07:36:37;96655.09;;;17.22;100.00
57594;BME280;43423;46.510;6.686;2023-09-19T07:39:03;96653.78;;;17.28;100.00
57594;BME280;43423;46.510;6.686;2023-09-19T07:41:32;96652.44;;;17.41;100.00
57594;BME280;43423;46.510;6.686;2023-09-19T07:43:58;96656.22;;;17.38;100.00
57594;BME280;43423;46.510;6.686;2023-09-19T07:46:23;96657.69;;;17.44;100.00
57594;BME280;43423;46.510;6.686;2023-09-19T07:48:51;96659.22;;;17.70;100.00
57594;BME280;43423;46.510;6.686;2023-09-19T07:51:17;96659.44;;;17.77;100.00
57594;BME280;43423;46.510;6.686;2023-09-19T07:53:43;96663.00;;;17.72;100.00
57594;BME280;43423;46.510;6.686;2023-09-19T07:56:09;96661.22;;;17.75;100.00
57594;BME280;43423;46.510;6.686;2023-09-19T07:58:39;96665.25;;;17.98;100.00
57594;BME280;43423;46.510;6.686;2023-09-19T08:01:07;96665.47;;;18.00;100.00
57594;BME280;43423;46.510;6.686;2023-09-19T08:03:33;96661.88;;;18.05;100.00
57594;BME280;43423;46.510;6.686;2023-09-19T08:06:02;96669.22;;;18.46;100.00
57594;BME280;43423;46.510;6.686;2023-09-19T08:08:28;96674.59;;;19.46;98.77
57594;BME280;43423;46.510;6.686;2023-09-19T08:10:55;96667.75;;;18.83;100.00
57594;BME280;43423;46.510;6.686;2023-09-19T08:13:25;96680.47;;;19.10;95.63
57594;BME280;43423;46.510;6.686;2023-09-19T08:15:51;96680.41;;;19.16;97.38
57594;BME280;43423;46.510;6.686;2023-09-19T08:18:19;96674.25;;;19.04;99.69
57594;BME280;43423;46.510;6.686;2023-09-19T08:20:51;96677.78;;;18.48;99.42
57594;BME280;43423;46.510;6.686;2023-09-19T08:23:18;96666.66;;;18.48;100.00
57594;BME280;43423;46.510;6.686;2023-09-19T08:25:46;96672.19;;;19.23;96.27
57594;BME280;43423;46.510;6.686;2023-09-19T08:28:11;96673.53;;;18.85;96.92
57594;BME280;43423;46.510;6.686;2023-09-19T08:30:39;96674.09;;;18.40;95.90
57594;BME280;43423;46.510;6.686;2023-09-19T08:33:06;96664.78;;;18.56;97.19
57594;BME280;43423;46.510;6.686;2023-09-19T08:35:33;96674.09;;;18.21;97.38
57594;BME280;43423;46.510;6.686;2023-09-19T08:37:58;96671.19;;;18.51;97.60
57594;BME280;43423;46.510;6.686;2023-09-19T08:40:30;96662.88;;;19.02;97.84
57594;BME280;43423;46.510;6.686;2023-09-19T08:42:59;96669.44;;;19.50;94.64
57594;BME280;43423;46.510;6.686;2023-09-19T08:45:26;96669.09;;;19.59;95.55
57594;BME280;43423;46.510;6.686;2023-09-19T08:50:51;96677.91;;;19.44;93.30
57594;BME280;43423;46.510;6.686;2023-09-19T08:53:30;96677.25;;;19.38;91.36
57594;BME280;43423;46.510;6.686;2023-09-19T08:55:59;96683.69;;;19.78;93.20
57594;BME280;43423;46.510;6.686;2023-09-19T08:58:31;96687.75;;;19.77;91.24
57594;BME280;43423;46.510;6.686;2023-09-19T09:01:00;96673.50;;;19.36;92.21
57594;BME280;43423;46.510;6.686;2023-09-19T09:03:32;96673.38;;;19.28;92.32
57594;BME280;43423;46.510;6.686;2023-09-19T09:05:59;96670.59;;;19.41;92.93
57594;BME280;43423;46.510;6.686;2023-09-19T09:08:25;96668.44;;;19.21;87.99
57594;BME280;43423;46.510;6.686;2023-09-19T09:10:51;96668.78;;;19.76;90.60
57594;BME280;43423;46.510;6.686;2023-09-19T09:13:17;96669.09;;;19.59;90.09
57594;BME280;43423;46.510;6.686;2023-09-19T09:15:43;96674.22;;;20.21;88.67
57594;BME280;43423;46.510;6.686;2023-09-19T09:18:10;96675.31;;;20.45;83.14
57594;BME280;43423;46.510;6.686;2023-09-19T09:20:35;96667.69;;;19.79;84.05
57594;BME280;43423;46.510;6.686;2023-09-19T09:23:01;96676.94;;;20.87;83.81
57594;BME280;43423;46.510;6.686;2023-09-19T09:28:27;96671.66;;;19.97;85.05
57594;BME280;43423;46.510;6.686;2023-09-19T09:30:54;96662.75;;;19.72;87.65
57594;BME280;43423;46.510;6.686;2023-09-19T09:33:21;96672.97;;;20.09;85.99
57594;BME280;43423;46.510;6.686;2023-09-19T09:35:52;96676.91;;;20.27;84.33
57594;BME280;43423;46.510;6.686;2023-09-19T09:38:29;96677.25;;;20.23;84.97
57594;BME280;43423;46.510;6.686;2023-09-19T09:40:57;96671.13;;;20.85;84.69
57594;BME280;43423;46.510;6.686;2023-09-19T09:43:31;96681.84;;;20.95;82.57
57594;BME280;43423;46.510;6.686;2023-09-19T09:46:14;96674.19;;;20.61;81.31
57594;BME280;43423;46.510;6.686;2023-09-19T09:51:40;96671.13;;;20.38;83.86
57594;BME280;43423;46.510;6.686;2023-09-19T09:54:18;96675.31;;;20.31;81.79
57594;BME280;43423;46.510;6.686;2023-09-19T09:57:01;96668.00;;;20.28;82.72
57594;BME280;43423;46.510;6.686;2023-09-19T09:59:48;96666.66;;;21.03;78.17
57594;BME280;43423;46.510;6.686;2023-09-19T10:02:43;96657.09;;;20.99;78.38
57594;BME280;43423;46.510;6.686;2023-09-19T10:05:19;96657.13;;;20.51;79.65
57594;BME280;43423;46.510;6.686;2023-09-19T10:07:50;96654.63;;;21.29;78.34
57594;BME280;43423;46.510;6.686;2023-09-19T10:10:36;96661.81;;;21.04;79.57
57594;BME280;43423;46.510;6.686;2023-09-19T10:13:09;96654.63;;;21.29;80.36
57594;BME280;43423;46.510;6.686;2023-09-19T10:15:39;96663.00;;;21.50;78.40
57594;BME280;43423;46.510;6.686;2023-09-19T10:18:20;96659.50;;;20.95;77.11
57594;BME280;43423;46.510;6.686;2023-09-19T10:20:46;96649.16;;;21.44;80.64
57594;BME280;43423;46.510;6.686;2023-09-19T10:23:15;96663.22;;;21.81;75.25
57594;BME280;43423;46.510;6.686;2023-09-19T10:25:47;96658.47;;;21.26;77.12
57594;BME280;43423;46.510;6.686;2023-09-19T10:28:14;96661.44;;;21.41;76.87
57594;BME280;43423;46.510;6.686;2023-09-19T10:30:44;96654.84;;;21.81;76.91
57594;BME280;43423;46.510;6.686;2023-09-19T10:33:17;96664.56;;;21.59;76.95
57594;BME280;43423;46.510;6.686;2023-09-19T10:35:48;96651.97;;;20.89;78.58
57594;BME280;43423;46.510;6.686;2023-09-19T10:38:17;96653.16;;;20.94;79.83
57594;BME280;43423;46.510;6.686;2023-09-19T10:40:44;96660.56;;;20.91;80.47
57594;BME280;43423;46.510;6.686;2023-09-19T10:43:15;96657.50;;;20.69;77.84
57594;BME280;43423;46.510;6.686;2023-09-19T10:45:45;96654.56;;;21.08;77.24
57594;BME280;43423;46.510;6.686;2023-09-19T10:48:20;96652.72;;;20.56;77.04
57594;BME280;43423;46.510;6.686;2023-09-19T10:50:57;96654.22;;;20.70;76.50
57594;BME280;43423;46.510;6.686;2023-09-19T10:53:25;96648.88;;;20.46;77.41
57594;BME280;43423;46.510;6.686;2023-09-19T10:55:59;96650.59;;;20.49;82.15
57594;BME280;43423;46.510;6.686;2023-09-19T10:58:29;96660.78;;;20.59;78.11
57594;BME280;43423;46.510;6.686;2023-09-19T11:01:00;96661.75;;;20.96;77.86
57594;BME280;43423;46.510;6.686;2023-09-19T11:03:30;96652.28;;;21.20;74.44
57594;BME280;43423;46.510;6.686;2023-09-19T11:06:23;96655.78;;;21.00;78.20
57594;BME280;43423;46.510;6.686;2023-09-19T11:30:47;96642.78;;;21.65;72.28
57594;BME280;43423;46.510;6.686;2023-09-19T11:33:30;96639.22;;;21.23;73.75
57594;BME280;43423;46.510;6.686;2023-09-19T11:39:31;96631.94;;;21.40;69.93
57594;BME280;43423;46.510;6.686;2023-09-19T11:41:58;96634.16;;;21.34;71.20
57594;BME280;43423;46.510;6.686;2023-09-19T11:49:18;96634.59;;;22.03;72.19
57594;BME280;43423;46.510;6.686;2023-09-19T11:51:52;96632.09;;;22.13;73.38
57594;BME280;43423;46.510;6.686;2023-09-19T11:54:17;96632.63;;;21.83;72.66
57594;BME280;43423;46.510;6.686;2023-09-19T11:56:45;96632.84;;;21.35;74.08
57594;BME280;43423;46.510;6.686;2023-09-19T11:59:20;96626.28;;;21.82;74.92
57594;BME280;43423;46.510;6.686;2023-09-19T12:01:53;96625.88;;;21.78;71.02
57594;BME280;43423;46.510;6.686;2023-09-19T12:04:39;96634.59;;;21.46;71.57
57594;BME280;43423;46.510;6.686;2023-09-19T12:07:10;96624.59;;;21.51;74.36
57594;BME280;43423;46.510;6.686;2023-09-19T12:09:43;96620.19;;;21.91;69.16
57594;BME280;43423;46.510;6.686;2023-09-19T12:12:19;96617.75;;;21.95;71.63
57594;BME280;43423;46.510;6.686;2023-09-19T12:14:48;96617.56;;;21.93;69.29
57594;BME280;43423;46.510;6.686;2023-09-19T12:17:14;96614.88;;;22.09;70.57
57594;BME280;43423;46.510;6.686;2023-09-19T12:19:49;96609.50;;;22.18;68.29
57594;BME280;43423;46.510;6.686;2023-09-19T12:22:16;96607.41;;;21.75;69.17
57594;BME280;43423;46.510;6.686;2023-09-19T12:24:43;96605.97;;;22.18;71.16
57594;BME280;43423;46.510;6.686;2023-09-19T12:27:10;96607.16;;;22.30;67.65
57594;BME280;43423;46.510;6.686;2023-09-19T12:29:45;96599.28;;;20.94;65.50
57594;BME280;43423;46.510;6.686;2023-09-19T12:32:11;96595.31;;;21.88;69.04
57594;BME280;43423;46.510;6.686;2023-09-19T12:34:36;96602.28;;;22.31;66.21
57594;BME280;43423;46.510;6.686;2023-09-19T12:37:12;96594.38;;;22.73;65.09
57594;BME280;43423;46.510;6.686;2023-09-19T12:39:39;96591.63;;;22.88;64.43
57594;BME280;43423;46.510;6.686;2023-09-19T12:42:08;96583.81;;;23.17;64.51
57594;BME280;43423;46.510;6.686;2023-09-19T12:44:41;96590.50;;;23.22;61.72
57594;BME280;43423;46.510;6.686;2023-09-19T12:47:13;96591.66;;;22.37;62.51
57594;BME280;43423;46.510;6.686;2023-09-19T12:50:06;96600.59;;;21.91;63.75
57594;BME280;43423;46.510;6.686;2023-09-19T12:52:37;96602.25;;;22.23;65.21
57594;BME280;43423;46.510;6.686;2023-09-19T12:55:03;96592.81;;;22.49;64.16
57594;BME280;43423;46.510;6.686;2023-09-19T12:57:30;96595.78;;;22.43;63.81
57594;BME280;43423;46.510;6.686;2023-09-19T13:00:01;96589.81;;;22.39;63.77
57594;BME280;43423;46.510;6.686;2023-09-19T13:02:27;96579.31;;;22.32;66.25
57594;BME280;43423;46.510;6.686;2023-09-19T13:04:54;96587.13;;;22.26;66.85
57594;BME280;43423;46.510;6.686;2023-09-19T13:07:43;96574.31;;;22.38;67.62
57594;BME280;43423;46.510;6.686;2023-09-19T13:10:09;96563.69;;;22.44;65.19
57594;BME280;43423;46.510;6.686;2023-09-19T13:12:37;96567.34;;;22.24;65.82
57594;BME280;43423;46.510;6.686;2023-09-19T13:15:14;96575.28;;;22.05;65.98
57594;BME280;43423;46.510;6.686;2023-09-19T13:17:49;96569.56;;;22.18;68.52
57594;BME280;43423;46.510;6.686;2023-09-19T13:20:25;96571.72;;;22.55;66.04
57594;BME280;43423;46.510;6.686;2023-09-19T13:22:53;96557.69;;;21.96;66.40
57594;BME280;43423;46.510;6.686;2023-09-19T13:25:21;96561.44;;;22.50;66.09
57594;BME280;43423;46.510;6.686;2023-09-19T13:27:51;96555.28;;;22.00;63.21
57594;BME280;43423;46.510;6.686;2023-09-19T13:30:20;96553.34;;;22.24;61.32
57594;BME280;43423;46.510;6.686;2023-09-19T13:32:46;96556.06;;;22.68;65.72
57594;BME280;43423;46.510;6.686;2023-09-19T13:35:13;96553.31;;;22.98;64.66
57594;BME280;43423;46.510;6.686;2023-09-19T13:37:40;96557.13;;;22.49;63.39
57594;BME280;43423;46.510;6.686;2023-09-19T13:40:10;96549.31;;;22.55;63.44
57594;BME280;43423;46.510;6.686;2023-09-19T13:42:37;96544.25;;;22.46;64.93
57594;BME280;43423;46.510;6.686;2023-09-19T13:48:32;96540.41;;;22.95;62.77
57594;BME280;43423;46.510;6.686;2023-09-19T13:51:02;96535.94;;;22.92;58.78
57594;BME280;43423;46.510;6.686;2023-09-19T13:53:29;96535.72;;;22.67;58.63
57594;BME280;43423;46.510;6.686;2023-09-19T13:55:56;96520.25;;;22.15;61.93
57594;BME280;43423;46.510;6.686;2023-09-19T13:58:22;96517.69;;;22.32;59.72
57594;BME280;43423;46.510;6.686;2023-09-19T14:00:52;96521.09;;;21.94;57.49
57594;BME280;43423;46.510;6.686;2023-09-19T14:03:20;96506.50;;;22.32;59.42
57594;BME280;43423;46.510;6.686;2023-09-19T14:05:47;96519.13;;;22.18;60.77